This is the latest recevied weather packets stored in our database for station/object KC1OEK-13. If no packets are shown the sender has not sent any weather packets the latest 10 day(s).
| Time | Temp. | Humidity | Pressure | Rain* | Wind** | Luminosity | Snow |
|---|---|---|---|---|---|---|---|
| 1777937697 | 16.67° C | 52% | 1010.7 hPa | 0 mm | - | 13 W/m² | - |
| 1777937091 | 17.22° C | 51% | 1010.5 hPa | 0 mm | - | 20 W/m² | - |
| 1777936789 | 17.22° C | 51% | 1010.4 hPa | 0 mm | - | 23 W/m² | - |
| 1777935273 | 18.33° C | 48% | 1010.3 hPa | 0 mm | - | 42 W/m² | - |
| 1777934060 | 18.89° C | 45% | 1010.3 hPa | 0 mm | - | 91 W/m² | - |
| 1777933756 | 18.89° C | 46% | 1010.2 hPa | 0 mm | - | 100 W/m² | - |
| 1777933152 | 19.44° C | 44% | 1010.1 hPa | 0 mm | - | 122 W/m² | - |
| 1777932848 | 19.44° C | 44% | 1010.1 hPa | 0 mm | - | 136 W/m² | - |
| 1777931939 | 20.56° C | 34% | 1010.1 hPa | 0 mm | - | 63 W/m² | - |
| 1777931635 | 21.67° C | 33% | 1010 hPa | 0 mm | - | 65 W/m² | - |
| 1777930725 | 20.56° C | 34% | 1010.2 hPa | 0 mm | - | 95 W/m² | - |
| 1777930118 | 21.67° C | 33% | 1010.2 hPa | 0 mm | - | 97 W/m² | - |
| 1777929814 | 21.67° C | 33% | 1010 hPa | 0 mm | - | 302 W/m² | - |
| 1777929512 | 21.67° C | 33% | 1010 hPa | 0 mm | - | 309 W/m² | - |
| 1777929208 | 21.67° C | 33% | 1010 hPa | 0 mm | - | 324 W/m² | - |
| 1777928906 | 21.67° C | 34% | 1010.2 hPa | 0 mm | - | 346 W/m² | - |
| 1777927998 | 21.11° C | 34% | 1010.1 hPa | 0 mm | - | 374 W/m² | - |
| 1777927093 | 21.11° C | 33% | 1010.2 hPa | 0 mm | - | 193 W/m² | - |
| 1777926790 | 21.67° C | 33% | 1010 hPa | 0 mm | - | 465 W/m² | - |
| 1777926485 | 21.67° C | 33% | 1010.3 hPa | 0 mm | - | 483 W/m² | - |
| 1777926183 | 22.22° C | 32% | 1009.9 hPa | 0 mm | - | 451 W/m² | - |
| 1777925879 | 22.22° C | 34% | 1010.3 hPa | 0 mm | - | 447 W/m² | - |
| 1777925274 | 21.67° C | 37% | 1010.2 hPa | 0 mm | - | 533 W/m² | - |
| 1777924970 | 22.22° C | 33% | 1010.2 hPa | 0 mm | - | 550 W/m² | - |
| 1777924060 | 22.22° C | 33% | 1010.3 hPa | 0 mm | - | 552 W/m² | - |
* Rain latest hour (hover to see other rain measurements)
** Current wind speed in m/s (hover to see current wind gust speed)